createdAt,value
2023-04-24T00:01:37.850Z,57.96
2023-04-24T00:04:05.207Z,57.49
2023-04-24T00:06:35.141Z,57.55
2023-04-24T00:09:04.281Z,57.27
2023-04-24T00:11:31.417Z,57.20
2023-04-24T00:13:58.390Z,57.36
2023-04-24T00:16:25.430Z,57.33
2023-04-24T00:18:53.628Z,57.57
2023-04-24T00:21:21.386Z,57.48
2023-04-24T00:23:48.494Z,57.87
2023-04-24T00:26:16.701Z,58.08
2023-04-24T00:28:43.814Z,58.20
2023-04-24T00:31:10.840Z,58.03
2023-04-24T00:33:37.774Z,57.65
2023-04-24T00:36:05.015Z,57.29
2023-04-24T00:38:31.942Z,56.28
2023-04-24T00:40:58.884Z,56.36
2023-04-24T00:43:27.157Z,55.75
2023-04-24T00:45:54.895Z,55.04
2023-04-24T00:48:22.339Z,54.05
2023-04-24T00:50:49.226Z,54.05
2023-04-24T00:53:16.366Z,54.19
2023-04-24T00:55:43.766Z,54.05
2023-04-24T00:58:10.892Z,53.18
2023-04-24T01:00:39.903Z,53.22
2023-04-24T01:03:08.141Z,53.21
2023-04-24T01:05:35.665Z,52.81
2023-04-24T01:08:03.714Z,52.39
2023-04-24T01:10:33.897Z,52.26
2023-04-24T01:13:00.985Z,52.18
2023-04-24T01:15:27.910Z,52.28
2023-04-24T01:17:57.000Z,52.15
2023-04-24T01:20:26.906Z,52.10
2023-04-24T01:22:57.388Z,52.09
2023-04-24T01:25:26.824Z,52.09
2023-04-24T01:27:53.793Z,52.17
2023-04-24T01:30:20.855Z,52.29
2023-04-24T01:32:49.078Z,52.26
2023-04-24T01:35:16.414Z,52.42
2023-04-24T01:37:43.350Z,51.98
2023-04-24T01:40:12.549Z,51.97
2023-04-24T01:42:42.106Z,51.95
2023-04-24T01:45:13.819Z,51.80
2023-04-24T01:47:41.146Z,51.31
2023-04-24T01:50:09.821Z,51.55
2023-04-24T01:52:37.053Z,51.21
2023-04-24T01:55:06.004Z,51.68
2023-04-24T01:57:34.772Z,51.36
2023-04-24T02:00:01.762Z,51.43
2023-04-24T02:02:29.758Z,51.42
2023-04-24T02:04:57.301Z,51.36
2023-04-24T02:07:24.347Z,51.49
2023-04-24T02:09:51.250Z,51.52
2023-04-24T02:12:21.257Z,51.86
2023-04-24T02:14:49.597Z,51.89
2023-04-24T02:17:17.099Z,51.72
2023-04-24T02:19:44.175Z,52.10
2023-04-24T02:22:11.572Z,52.35
2023-04-24T02:24:42.491Z,52.04
2023-04-24T02:27:09.405Z,52.47
2023-04-24T02:29:36.848Z,52.66
2023-04-24T02:32:05.311Z,52.87
2023-04-24T02:34:32.230Z,53.08
2023-04-24T02:36:59.145Z,53.29
2023-04-24T02:39:26.094Z,53.19
2023-04-24T02:41:52.969Z,53.40
2023-04-24T02:44:19.859Z,53.44
2023-04-24T02:46:47.040Z,53.72
2023-04-24T02:49:16.444Z,53.60
2023-04-24T02:51:43.397Z,53.65
2023-04-24T02:54:13.467Z,53.45
2023-04-24T02:56:40.772Z,53.43
2023-04-24T02:59:07.742Z,53.34
2023-04-24T03:01:34.785Z,53.52
2023-04-24T03:04:02.178Z,53.73
2023-04-24T03:06:32.228Z,53.43
2023-04-24T03:08:59.141Z,53.22
2023-04-24T03:11:31.935Z,53.04
2023-04-24T03:13:59.074Z,52.95
2023-04-24T03:16:26.342Z,52.98
2023-04-24T03:18:53.246Z,52.75
2023-04-24T03:21:20.366Z,52.71
2023-04-24T03:23:59.213Z,52.06
2023-04-24T03:26:26.903Z,52.13
2023-04-24T03:28:53.816Z,52.21
2023-04-24T03:31:22.150Z,52.19
2023-04-24T03:33:49.120Z,51.99
2023-04-24T03:36:16.217Z,51.66
2023-04-24T03:38:43.142Z,51.69
2023-04-24T03:41:11.460Z,51.37
2023-04-24T03:43:38.751Z,51.40
2023-04-24T03:46:06.611Z,51.54
2023-04-24T03:48:33.514Z,51.38
2023-04-24T03:51:00.446Z,51.48
2023-04-24T03:53:27.573Z,51.06
2023-04-24T03:55:54.664Z,51.40
2023-04-24T03:58:22.910Z,51.29
2023-04-24T04:00:50.667Z,50.74
2023-04-24T04:03:17.811Z,51.00
2023-04-24T04:05:45.488Z,50.76
2023-04-24T04:08:12.378Z,50.86
2023-04-24T04:10:39.280Z,50.86
2023-04-24T04:13:07.412Z,50.58
2023-04-24T04:15:35.736Z,50.38
2023-04-24T04:18:03.037Z,50.33
2023-04-24T04:20:30.196Z,50.27
2023-04-24T04:22:57.091Z,50.23
2023-04-24T04:25:24.005Z,49.87
2023-04-24T04:27:52.032Z,50.34
2023-04-24T04:30:19.441Z,49.90
2023-04-24T04:32:48.076Z,50.03
2023-04-24T04:35:15.129Z,49.91
2023-04-24T04:37:42.024Z,49.70
2023-04-24T04:40:12.843Z,50.04
2023-04-24T04:42:41.265Z,49.87
2023-04-24T04:45:12.425Z,49.91
2023-04-24T04:47:40.535Z,49.84
2023-04-24T04:50:10.445Z,50.23
2023-04-24T04:52:37.495Z,50.25
2023-04-24T04:55:06.073Z,50.50
2023-04-24T04:57:33.047Z,50.40
2023-04-24T04:59:59.923Z,50.36
2023-04-24T05:02:26.905Z,50.06
2023-04-24T05:04:54.038Z,50.24
2023-04-24T05:07:22.358Z,49.92
2023-04-24T05:09:49.422Z,49.96
2023-04-24T05:12:16.525Z,49.73
2023-04-24T05:14:43.504Z,49.72
2023-04-24T05:17:10.895Z,49.65
2023-04-24T05:19:39.367Z,49.62
2023-04-24T05:22:07.729Z,49.87
2023-04-24T05:24:36.467Z,49.60
2023-04-24T05:27:05.423Z,49.89
2023-04-24T05:29:32.673Z,50.08
2023-04-24T05:31:59.752Z,49.96
2023-04-24T05:34:26.802Z,50.07
2023-04-24T05:36:54.172Z,50.04
2023-04-24T05:39:21.435Z,50.27
2023-04-24T05:41:49.596Z,50.16
2023-04-24T05:44:16.475Z,50.34
2023-04-24T05:46:43.495Z,50.40
2023-04-24T05:49:10.458Z,50.55
2023-04-24T05:51:37.339Z,50.36
2023-04-24T05:54:04.516Z,50.49
2023-04-24T05:56:31.914Z,50.89
2023-04-24T05:59:00.175Z,50.41
2023-04-24T06:01:27.813Z,50.30
2023-04-24T06:03:55.253Z,50.25
2023-04-24T06:06:22.525Z,50.14
2023-04-24T06:08:49.503Z,49.95
2023-04-24T06:11:16.849Z,49.71
2023-04-24T06:13:43.838Z,49.95
2023-04-24T06:16:12.210Z,49.72
2023-04-24T06:18:39.167Z,49.68
2023-04-24T06:21:06.345Z,49.33
2023-04-24T06:23:33.901Z,49.09
2023-04-24T06:26:01.040Z,48.99
2023-04-24T06:28:28.137Z,49.01
2023-04-24T06:30:55.092Z,48.93
2023-04-24T06:33:24.057Z,48.63
2023-04-24T06:35:51.064Z,48.93
2023-04-24T06:38:18.171Z,49.20
2023-04-24T06:40:46.389Z,49.01
2023-04-24T06:43:13.369Z,49.01
2023-04-24T06:45:40.855Z,48.58
2023-04-24T06:48:08.297Z,48.65
2023-04-24T06:50:37.034Z,48.79
2023-04-24T06:53:03.947Z,48.86
2023-04-24T06:55:31.736Z,49.22
2023-04-24T06:57:58.750Z,49.33
2023-04-24T07:00:25.748Z,49.77
2023-04-24T07:02:53.059Z,49.82
2023-04-24T07:05:20.921Z,49.86
2023-04-24T07:07:50.701Z,49.78
2023-04-24T07:10:21.080Z,49.14
2023-04-24T07:12:48.399Z,49.36
2023-04-24T07:15:15.558Z,49.75
2023-04-24T07:17:45.395Z,49.71
2023-04-24T07:20:13.252Z,49.77
2023-04-24T07:22:40.508Z,49.96
2023-04-24T07:25:09.958Z,49.68
2023-04-24T07:27:37.501Z,49.56
2023-04-24T07:30:05.746Z,49.00
2023-04-24T07:32:32.818Z,48.85
2023-04-24T07:34:59.756Z,48.56
2023-04-24T07:37:27.182Z,48.28
2023-04-24T07:39:54.117Z,48.13
2023-04-24T07:42:22.387Z,47.54
2023-04-24T07:44:49.391Z,47.13
2023-04-24T07:47:16.971Z,47.15
2023-04-24T07:49:44.112Z,46.48
2023-04-24T07:52:12.284Z,46.66
2023-04-24T07:54:39.256Z,46.33
2023-04-24T07:57:07.759Z,46.42
2023-04-24T07:59:36.215Z,46.48
2023-04-24T08:02:03.387Z,46.67
2023-04-24T08:04:30.619Z,46.93
2023-04-24T08:06:57.650Z,46.92
2023-04-24T08:09:26.506Z,46.59
2023-04-24T08:11:54.840Z,46.80
2023-04-24T08:14:21.826Z,46.64
2023-04-24T08:16:50.041Z,46.56
2023-04-24T08:19:17.386Z,46.65
2023-04-24T08:21:46.626Z,47.03
2023-04-24T08:24:14.731Z,46.82
2023-04-24T08:26:42.096Z,46.81
2023-04-24T08:29:09.346Z,46.58
2023-04-24T08:31:36.538Z,46.63
2023-04-24T08:34:04.922Z,46.97
2023-04-24T08:36:43.518Z,46.62
2023-04-24T08:39:13.482Z,46.50
2023-04-24T08:41:44.147Z,46.38
2023-04-24T08:44:11.778Z,46.29
2023-04-24T08:46:43.477Z,45.83
2023-04-24T08:49:13.462Z,45.01
2023-04-24T08:51:41.044Z,44.79
2023-04-24T08:54:08.385Z,44.65
2023-04-24T08:56:40.114Z,44.21
2023-04-24T08:59:07.468Z,43.91
2023-04-24T09:01:36.078Z,43.24
2023-04-24T09:04:05.217Z,43.32
2023-04-24T09:06:35.210Z,43.73
2023-04-24T09:09:04.283Z,43.91
2023-04-24T09:11:33.522Z,43.96
2023-04-24T09:14:01.906Z,43.97
2023-04-24T09:16:29.131Z,43.82
2023-04-24T09:18:56.873Z,43.87
2023-04-24T09:21:24.723Z,44.40
2023-04-24T09:24:01.896Z,44.82
2023-04-24T09:26:32.910Z,44.09
2023-04-24T09:29:00.770Z,42.78
2023-04-24T09:31:30.515Z,41.66
2023-04-24T09:34:02.010Z,41.73
2023-04-24T09:36:33.816Z,42.13
2023-04-24T09:39:05.507Z,42.30
2023-04-24T09:41:34.264Z,42.68
2023-04-24T09:44:13.096Z,43.06
2023-04-24T09:46:40.532Z,42.88
2023-04-24T09:49:17.718Z,43.68
2023-04-24T09:51:45.063Z,43.48
2023-04-24T09:54:19.093Z,43.75
2023-04-24T09:56:47.483Z,44.29
2023-04-24T09:59:15.062Z,44.82
2023-04-24T10:01:43.684Z,44.86
2023-04-24T10:04:19.270Z,44.98
2023-04-24T10:06:47.888Z,45.05
2023-04-24T10:09:16.641Z,45.13
2023-04-24T10:11:46.096Z,45.46
2023-04-24T10:14:15.916Z,45.50
2023-04-24T10:16:44.950Z,45.50
2023-04-24T10:19:14.061Z,45.95
2023-04-24T10:21:47.922Z,45.87
2023-04-24T10:24:18.852Z,45.82
2023-04-24T10:26:46.947Z,46.04
2023-04-24T10:29:16.638Z,46.32
2023-04-24T10:31:48.240Z,46.53
2023-04-24T10:34:21.747Z,47.18
2023-04-24T10:36:55.176Z,47.25
2023-04-24T10:39:27.171Z,47.54
2023-04-24T10:41:59.808Z,48.43
2023-04-24T10:44:37.100Z,48.32
2023-04-24T10:47:04.413Z,48.84
2023-04-24T10:49:32.999Z,49.15
2023-04-24T10:52:03.403Z,48.94
2023-04-24T10:54:37.829Z,48.58
2023-04-24T10:57:30.904Z,48.22
2023-04-24T11:00:20.629Z,48.47
2023-04-24T11:02:51.197Z,48.39
2023-04-24T11:05:20.111Z,47.81
2023-04-24T11:08:12.953Z,47.13
2023-04-24T11:10:46.111Z,46.74
2023-04-24T11:13:17.578Z,47.28
2023-04-24T11:15:44.801Z,46.59
2023-04-24T11:18:16.351Z,46.84
2023-04-24T11:20:52.040Z,45.89
2023-04-24T11:23:21.042Z,46.24
2023-04-24T11:26:13.639Z,46.74
2023-04-24T11:28:47.184Z,47.50
2023-04-24T11:31:40.589Z,47.82
2023-04-24T11:34:15.148Z,47.35
2023-04-24T11:36:44.813Z,47.98
2023-04-24T11:39:12.544Z,46.75
2023-04-24T11:41:41.061Z,47.13
2023-04-24T11:44:12.467Z,47.75
2023-04-24T11:46:41.219Z,48.37
2023-04-24T11:49:08.665Z,48.03
2023-04-24T11:51:44.506Z,47.81
2023-04-24T11:54:18.294Z,46.98
2023-04-24T11:56:47.780Z,47.81
2023-04-24T11:59:15.501Z,48.02
2023-04-24T12:01:46.612Z,48.26
2023-04-24T12:04:14.698Z,49.80
2023-04-24T12:06:59.898Z,50.04
2023-04-24T12:09:26.908Z,50.07
2023-04-24T12:12:00.384Z,50.90
2023-04-24T12:14:27.376Z,52.35
2023-04-24T12:16:54.481Z,52.60
2023-04-24T12:19:23.295Z,52.79
2023-04-24T12:22:03.921Z,51.68
2023-04-24T12:24:31.753Z,51.99
2023-04-24T12:27:02.338Z,52.56
2023-04-24T12:29:29.274Z,53.18
2023-04-24T12:31:56.399Z,53.81
2023-04-24T12:34:26.698Z,53.79
2023-04-24T12:36:53.865Z,54.21
2023-04-24T12:39:24.461Z,55.01
2023-04-24T12:41:57.779Z,55.34
2023-04-24T12:44:38.714Z,56.41
2023-04-24T12:47:14.690Z,56.64
2023-04-24T12:49:41.940Z,56.47
2023-04-24T12:52:09.248Z,56.52
2023-04-24T12:54:36.332Z,56.21
2023-04-24T12:57:03.545Z,56.77
2023-04-24T12:59:31.975Z,57.03
2023-04-24T13:01:59.121Z,56.86
2023-04-24T13:04:26.133Z,57.11
2023-04-24T13:06:53.127Z,57.68
2023-04-24T13:09:20.319Z,57.50
2023-04-24T13:11:47.357Z,57.59
2023-04-24T13:14:14.316Z,57.74
2023-04-24T13:16:42.733Z,57.51
2023-04-24T13:19:09.625Z,58.04
2023-04-24T13:21:36.549Z,57.40
2023-04-24T13:24:05.788Z,57.54
2023-04-24T13:26:32.744Z,57.45
2023-04-24T13:28:59.800Z,57.57
2023-04-24T13:31:27.153Z,57.17
2023-04-24T13:33:55.517Z,57.27
2023-04-24T13:36:22.713Z,57.25
2023-04-24T13:38:49.799Z,57.03
2023-04-24T13:41:16.737Z,57.22
2023-04-24T13:43:44.513Z,57.06
2023-04-24T13:46:11.723Z,56.68
2023-04-24T13:48:39.147Z,56.66
2023-04-24T13:51:10.855Z,56.68
2023-04-24T13:53:39.341Z,57.05
2023-04-24T13:56:06.889Z,56.74
2023-04-24T13:58:33.830Z,56.55
2023-04-24T14:01:00.900Z,56.88
2023-04-24T14:03:28.025Z,57.13
2023-04-24T14:05:55.362Z,57.21
2023-04-24T14:08:23.724Z,56.80
2023-04-24T14:10:51.774Z,56.91
2023-04-24T14:13:19.491Z,57.32
2023-04-24T14:15:47.128Z,57.24
2023-04-24T14:18:14.296Z,57.13
2023-04-24T14:20:41.387Z,57.11
2023-04-24T14:23:08.422Z,57.01
2023-04-24T14:25:36.750Z,56.89
2023-04-24T14:28:03.787Z,56.63
2023-04-24T14:30:31.402Z,56.53
2023-04-24T14:32:58.351Z,56.46
2023-04-24T14:35:25.366Z,56.43
2023-04-24T14:37:52.304Z,56.52
2023-04-24T14:40:39.446Z,56.41
2023-04-24T14:43:07.978Z,56.70
2023-04-24T14:45:35.241Z,56.62
2023-04-24T14:48:02.281Z,55.91
2023-04-24T14:50:29.362Z,55.89
2023-04-24T14:52:58.511Z,55.87
2023-04-24T14:55:26.840Z,55.98
2023-04-24T14:57:54.533Z,56.06
2023-04-24T15:00:24.940Z,55.87
2023-04-24T15:02:52.508Z,55.67
2023-04-24T15:05:20.142Z,55.55
2023-04-24T15:07:47.241Z,55.73
2023-04-24T15:10:14.462Z,55.81
2023-04-24T15:12:41.589Z,55.76
2023-04-24T15:15:10.843Z,55.46
2023-04-24T15:17:39.337Z,55.45
2023-04-24T15:20:08.498Z,55.14
2023-04-24T15:22:36.395Z,55.42
2023-04-24T15:25:08.205Z,55.70
2023-04-24T15:27:43.318Z,55.89
2023-04-24T15:30:12.000Z,55.75
2023-04-24T15:32:40.791Z,55.82
2023-04-24T15:35:10.341Z,55.48
2023-04-24T15:37:38.866Z,55.52
2023-04-24T15:40:08.310Z,55.13
2023-04-24T15:42:36.368Z,55.33
2023-04-24T15:45:04.465Z,55.36
2023-04-24T15:47:32.847Z,54.94
2023-04-24T15:50:01.487Z,55.03
2023-04-24T15:52:28.691Z,55.26
2023-04-24T15:54:56.204Z,55.29
2023-04-24T15:57:23.381Z,55.11
2023-04-24T15:59:50.735Z,55.28
2023-04-24T16:02:19.491Z,55.25
2023-04-24T16:04:49.096Z,55.46
2023-04-24T16:07:18.449Z,55.01
2023-04-24T16:09:45.661Z,54.07
2023-04-24T16:12:13.262Z,53.16
2023-04-24T16:14:40.220Z,54.22
2023-04-24T16:17:07.500Z,54.02
2023-04-24T16:19:35.026Z,53.82
2023-04-24T16:22:03.171Z,54.47
2023-04-24T16:24:31.576Z,54.32
2023-04-24T16:26:58.532Z,54.39
2023-04-24T16:29:26.013Z,54.12
2023-04-24T16:31:54.112Z,53.92
2023-04-24T16:34:21.143Z,54.39
2023-04-24T16:36:48.075Z,54.35
2023-04-24T16:39:15.405Z,54.20
2023-04-24T16:41:43.992Z,54.38
2023-04-24T16:44:11.449Z,54.48
2023-04-24T16:46:38.477Z,54.54
2023-04-24T16:49:05.605Z,54.73
2023-04-24T16:51:33.729Z,54.89
2023-04-24T16:54:00.787Z,54.94
2023-04-24T16:56:27.878Z,54.00
2023-04-24T16:58:56.416Z,55.26
2023-04-24T17:01:23.937Z,55.83
2023-04-24T17:03:51.559Z,55.83
2023-04-24T17:06:18.915Z,56.32
2023-04-24T17:08:46.303Z,56.18
2023-04-24T17:11:13.435Z,56.42
2023-04-24T17:13:40.491Z,56.74
2023-04-24T17:16:08.865Z,56.77
2023-04-24T17:18:36.162Z,56.97
2023-04-24T17:21:03.418Z,56.79
2023-04-24T17:23:31.210Z,56.81
2023-04-24T17:25:58.449Z,56.79
2023-04-24T17:28:28.505Z,56.73
2023-04-24T17:30:58.322Z,56.80
2023-04-24T17:33:27.351Z,56.63
2023-04-24T17:35:54.839Z,56.64
2023-04-24T17:38:22.194Z,56.66
2023-04-24T17:40:53.660Z,56.49
2023-04-24T17:43:23.196Z,56.53
2023-04-24T17:45:52.796Z,56.49
2023-04-24T17:48:20.216Z,56.79
2023-04-24T17:50:49.354Z,56.16
2023-04-24T17:53:16.485Z,56.16
2023-04-24T17:55:43.663Z,56.23
2023-04-24T17:58:11.317Z,55.88
2023-04-24T18:00:39.341Z,55.59
2023-04-24T18:03:08.729Z,55.57
2023-04-24T18:05:39.146Z,55.64
2023-04-24T18:08:08.097Z,55.51
2023-04-24T18:10:36.356Z,55.38
2023-04-24T18:13:04.169Z,55.23
2023-04-24T18:15:31.838Z,55.10
2023-04-24T18:17:58.913Z,55.04
2023-04-24T18:20:26.262Z,55.14
2023-04-24T18:22:53.691Z,55.33
2023-04-24T18:25:26.602Z,55.13
2023-04-24T18:27:55.666Z,55.06
2023-04-24T18:30:24.404Z,55.06
2023-04-24T18:32:53.714Z,54.92
2023-04-24T18:35:21.485Z,55.20
2023-04-24T18:37:48.706Z,54.98
2023-04-24T18:40:16.593Z,55.09
2023-04-24T18:42:45.199Z,55.14
2023-04-24T18:45:14.881Z,54.92
2023-04-24T18:47:42.524Z,55.13
2023-04-24T18:50:10.988Z,55.21
2023-04-24T18:52:38.126Z,55.00
2023-04-24T18:55:06.955Z,55.06
2023-04-24T18:57:34.380Z,54.80
2023-04-24T19:00:03.992Z,54.70
2023-04-24T19:02:35.378Z,54.89
2023-04-24T19:05:03.079Z,54.78
2023-04-24T19:07:30.610Z,54.65
2023-04-24T19:09:57.561Z,54.68
2023-04-24T19:12:24.724Z,54.52
2023-04-24T19:14:52.005Z,54.48
2023-04-24T19:17:24.357Z,54.61
2023-04-24T19:19:52.120Z,54.54
2023-04-24T19:22:20.298Z,54.67
2023-04-24T19:24:47.659Z,54.68
2023-04-24T19:27:14.672Z,54.56
2023-04-24T19:29:42.049Z,54.68
2023-04-24T19:32:09.246Z,54.68
2023-04-24T19:34:39.856Z,54.81
2023-04-24T19:37:08.007Z,54.72
2023-04-24T19:39:35.243Z,54.81
2023-04-24T19:42:05.830Z,54.88
2023-04-24T19:44:34.414Z,54.72
2023-04-24T19:47:01.482Z,54.79
2023-04-24T19:49:28.550Z,54.83
2023-04-24T19:51:56.774Z,54.75
2023-04-24T19:54:24.315Z,54.80
2023-04-24T19:56:51.347Z,54.67
2023-04-24T19:59:18.271Z,54.97
2023-04-24T20:01:45.691Z,54.61
2023-04-24T20:04:13.059Z,54.68
2023-04-24T20:06:40.188Z,54.67
2023-04-24T20:09:08.402Z,54.44
2023-04-24T20:11:35.538Z,54.67
2023-04-24T20:14:03.658Z,54.52
2023-04-24T20:16:31.130Z,54.67
2023-04-24T20:18:58.400Z,54.87
2023-04-24T20:21:25.344Z,54.85
2023-04-24T20:23:52.351Z,54.92
2023-04-24T20:26:21.417Z,55.05
2023-04-24T20:28:48.616Z,55.11
2023-04-24T20:31:15.802Z,54.94
2023-04-24T20:33:42.918Z,55.25
2023-04-24T20:36:09.839Z,55.04
2023-04-24T20:38:37.146Z,55.29
2023-04-24T20:41:04.233Z,55.04
2023-04-24T20:43:32.507Z,55.26
2023-04-24T20:46:00.340Z,54.85
2023-04-24T20:48:27.608Z,55.15
2023-04-24T20:50:55.838Z,54.84
2023-04-24T20:53:23.224Z,55.16
2023-04-24T20:55:50.554Z,54.90
2023-04-24T20:58:24.028Z,55.08
2023-04-24T21:00:52.571Z,54.88
2023-04-24T21:03:19.887Z,55.14
2023-04-24T21:05:47.232Z,54.85
2023-04-24T21:08:14.436Z,54.99
2023-04-24T21:10:41.708Z,54.80
2023-04-24T21:13:08.953Z,54.76
2023-04-24T21:15:36.065Z,54.51
2023-04-24T21:18:04.761Z,54.58
2023-04-24T21:20:32.259Z,54.59
2023-04-24T21:22:59.263Z,54.82
2023-04-24T21:25:26.510Z,54.64
2023-04-24T21:27:53.701Z,54.89
2023-04-24T21:30:21.885Z,54.47
2023-04-24T21:32:48.949Z,54.66
2023-04-24T21:35:17.478Z,54.58
2023-04-24T21:37:44.479Z,54.80
2023-04-24T21:40:11.805Z,54.81
2023-04-24T21:42:39.185Z,54.74
2023-04-24T21:45:08.005Z,54.55
2023-04-24T21:47:35.790Z,54.60
2023-04-24T21:50:04.281Z,54.83
2023-04-24T21:52:32.521Z,54.78
2023-04-24T21:54:59.448Z,54.65
2023-04-24T21:57:26.476Z,54.77
2023-04-24T21:59:53.471Z,54.86
2023-04-24T22:02:21.002Z,54.81
2023-04-24T22:04:48.919Z,54.71
2023-04-24T22:07:16.271Z,54.97
2023-04-24T22:09:44.560Z,55.13
2023-04-24T22:12:11.550Z,54.98
2023-04-24T22:14:38.552Z,55.05
2023-04-24T22:17:05.484Z,55.15
2023-04-24T22:19:32.442Z,55.21
2023-04-24T22:21:59.401Z,55.14
2023-04-24T22:24:26.423Z,55.36
2023-04-24T22:26:54.630Z,55.26
2023-04-24T22:29:24.928Z,55.09
2023-04-24T22:31:52.106Z,55.43
2023-04-24T22:34:19.619Z,55.03
2023-04-24T22:36:46.571Z,55.42
2023-04-24T22:39:15.716Z,55.54
2023-04-24T22:41:43.259Z,55.58
2023-04-24T22:44:11.704Z,55.41
2023-04-24T22:46:38.876Z,55.68
2023-04-24T22:49:06.056Z,55.64
2023-04-24T22:51:35.894Z,55.54
2023-04-24T22:54:04.325Z,55.87
2023-04-24T22:56:32.000Z,55.86
2023-04-24T22:58:58.994Z,55.68
2023-04-24T23:01:27.486Z,55.99
2023-04-24T23:03:55.103Z,55.96
2023-04-24T23:06:22.233Z,55.91
2023-04-24T23:08:49.353Z,56.24
2023-04-24T23:11:16.607Z,56.23
2023-04-24T23:13:44.313Z,56.33
2023-04-24T23:16:11.315Z,56.34
2023-04-24T23:18:39.608Z,56.69
2023-04-24T23:21:06.973Z,56.57
2023-04-24T23:23:34.128Z,56.59
2023-04-24T23:26:01.358Z,56.81
2023-04-24T23:28:28.314Z,56.83
2023-04-24T23:30:55.291Z,56.84
2023-04-24T23:33:22.256Z,56.52
2023-04-24T23:35:52.514Z,56.97
2023-04-24T23:38:19.448Z,57.05
2023-04-24T23:40:46.535Z,57.01
2023-04-24T23:43:13.526Z,57.00
2023-04-24T23:45:40.533Z,57.21
2023-04-24T23:48:07.596Z,57.09
2023-04-24T23:50:34.721Z,57.14
2023-04-24T23:53:03.061Z,56.87
2023-04-24T23:55:30.130Z,56.64
2023-04-24T23:57:57.014Z,55.79
